sensor_id;sensor_type;location;lat;lon;timestamp;temperature;humidity
3736;DHT22;1883;48.202;16.310;2024-02-26T00:01:04;6.30;62.60
3736;DHT22;1883;48.202;16.310;2024-02-26T00:03:32;6.30;62.60
3736;DHT22;1883;48.202;16.310;2024-02-26T00:06:01;6.30;62.40
3736;DHT22;1883;48.202;16.310;2024-02-26T00:08:30;6.30;62.40
3736;DHT22;1883;48.202;16.310;2024-02-26T00:10:58;6.20;62.30
3736;DHT22;1883;48.202;16.310;2024-02-26T00:13:24;6.20;62.30
3736;DHT22;1883;48.202;16.310;2024-02-26T00:15:51;6.20;62.30
3736;DHT22;1883;48.202;16.310;2024-02-26T00:18:18;6.20;62.30
3736;DHT22;1883;48.202;16.310;2024-02-26T00:20:46;6.20;62.20
3736;DHT22;1883;48.202;16.310;2024-02-26T00:23:15;6.10;62.10
3736;DHT22;1883;48.202;16.310;2024-02-26T00:25:45;6.20;62.00
3736;DHT22;1883;48.202;16.310;2024-02-26T00:28:13;6.10;62.00
3736;DHT22;1883;48.202;16.310;2024-02-26T00:30:40;6.20;61.80
3736;DHT22;1883;48.202;16.310;2024-02-26T00:33:07;6.10;61.80
3736;DHT22;1883;48.202;16.310;2024-02-26T00:35:37;6.20;61.80
3736;DHT22;1883;48.202;16.310;2024-02-26T00:38:04;6.10;61.80
3736;DHT22;1883;48.202;16.310;2024-02-26T00:40:31;6.10;61.70
3736;DHT22;1883;48.202;16.310;2024-02-26T00:43:00;6.00;61.60
3736;DHT22;1883;48.202;16.310;2024-02-26T00:45:30;6.00;61.60
3736;DHT22;1883;48.202;16.310;2024-02-26T00:47:59;6.00;61.50
3736;DHT22;1883;48.202;16.310;2024-02-26T00:50:30;6.00;61.50
3736;DHT22;1883;48.202;16.310;2024-02-26T00:52:57;6.00;61.50
3736;DHT22;1883;48.202;16.310;2024-02-26T00:55:25;6.00;61.40
3736;DHT22;1883;48.202;16.310;2024-02-26T00:57:53;6.00;61.30
3736;DHT22;1883;48.202;16.310;2024-02-26T01:00:21;5.90;61.10
3736;DHT22;1883;48.202;16.310;2024-02-26T01:02:48;6.00;61.20
3736;DHT22;1883;48.202;16.310;2024-02-26T01:05:15;5.90;61.20
3736;DHT22;1883;48.202;16.310;2024-02-26T01:07:43;5.80;61.20
3736;DHT22;1883;48.202;16.310;2024-02-26T01:10:10;5.80;61.00
3736;DHT22;1883;48.202;16.310;2024-02-26T01:12:38;5.70;61.00
3736;DHT22;1883;48.202;16.310;2024-02-26T01:15:05;5.70;60.90
3736;DHT22;1883;48.202;16.310;2024-02-26T01:17:35;5.70;60.70
3736;DHT22;1883;48.202;16.310;2024-02-26T01:20:02;5.70;60.50
3736;DHT22;1883;48.202;16.310;2024-02-26T01:22:29;5.70;60.40
3736;DHT22;1883;48.202;16.310;2024-02-26T01:24:56;5.80;60.30
3736;DHT22;1883;48.202;16.310;2024-02-26T01:27:23;5.80;60.30
3736;DHT22;1883;48.202;16.310;2024-02-26T01:29:52;5.80;59.90
3736;DHT22;1883;48.202;16.310;2024-02-26T01:32:19;5.80;60.00
3736;DHT22;1883;48.202;16.310;2024-02-26T01:34:48;5.70;59.80
3736;DHT22;1883;48.202;16.310;2024-02-26T01:37:15;5.70;59.70
3736;DHT22;1883;48.202;16.310;2024-02-26T01:39:42;5.70;59.50
3736;DHT22;1883;48.202;16.310;2024-02-26T01:42:09;5.70;59.40
3736;DHT22;1883;48.202;16.310;2024-02-26T01:44:36;5.70;59.10
3736;DHT22;1883;48.202;16.310;2024-02-26T01:47:04;5.60;59.00
3736;DHT22;1883;48.202;16.310;2024-02-26T01:49:32;5.60;58.80
3736;DHT22;1883;48.202;16.310;2024-02-26T01:52:03;5.60;58.60
3736;DHT22;1883;48.202;16.310;2024-02-26T01:54:31;5.60;58.50
3736;DHT22;1883;48.202;16.310;2024-02-26T01:56:58;5.60;58.30
3736;DHT22;1883;48.202;16.310;2024-02-26T01:59:25;5.60;58.00
3736;DHT22;1883;48.202;16.310;2024-02-26T02:01:57;5.60;57.90
3736;DHT22;1883;48.202;16.310;2024-02-26T02:04:24;5.60;57.80
3736;DHT22;1883;48.202;16.310;2024-02-26T02:06:52;5.50;57.30
3736;DHT22;1883;48.202;16.310;2024-02-26T02:09:25;5.40;57.10
3736;DHT22;1883;48.202;16.310;2024-02-26T02:11:53;5.50;56.90
3736;DHT22;1883;48.202;16.310;2024-02-26T02:14:21;5.40;56.50
3736;DHT22;1883;48.202;16.310;2024-02-26T02:16:48;5.30;56.20
3736;DHT22;1883;48.202;16.310;2024-02-26T02:19:16;5.40;55.60
3736;DHT22;1883;48.202;16.310;2024-02-26T02:21:44;5.30;55.50
3736;DHT22;1883;48.202;16.310;2024-02-26T02:24:12;5.20;55.00
3736;DHT22;1883;48.202;16.310;2024-02-26T02:26:39;5.20;54.70
3736;DHT22;1883;48.202;16.310;2024-02-26T02:29:07;5.20;54.40
3736;DHT22;1883;48.202;16.310;2024-02-26T02:31:35;5.20;54.00
3736;DHT22;1883;48.202;16.310;2024-02-26T02:34:02;5.20;53.40
3736;DHT22;1883;48.202;16.310;2024-02-26T02:36:29;5.20;53.40
3736;DHT22;1883;48.202;16.310;2024-02-26T02:38:58;5.20;53.30
3736;DHT22;1883;48.202;16.310;2024-02-26T02:41:25;5.10;52.90
3736;DHT22;1883;48.202;16.310;2024-02-26T02:43:55;5.10;52.60
3736;DHT22;1883;48.202;16.310;2024-02-26T02:46:22;5.10;52.30
3736;DHT22;1883;48.202;16.310;2024-02-26T02:48:49;5.10;52.20
3736;DHT22;1883;48.202;16.310;2024-02-26T02:51:16;5.20;52.40
3736;DHT22;1883;48.202;16.310;2024-02-26T02:53:44;5.20;52.20
3736;DHT22;1883;48.202;16.310;2024-02-26T02:56:12;5.20;52.10
3736;DHT22;1883;48.202;16.310;2024-02-26T02:58:40;5.20;52.30
3736;DHT22;1883;48.202;16.310;2024-02-26T03:01:10;5.20;52.60
3736;DHT22;1883;48.202;16.310;2024-02-26T03:03:37;5.10;52.30
3736;DHT22;1883;48.202;16.310;2024-02-26T03:06:04;5.10;52.20
3736;DHT22;1883;48.202;16.310;2024-02-26T03:08:31;5.20;52.20
3736;DHT22;1883;48.202;16.310;2024-02-26T03:10:58;5.20;52.40
3736;DHT22;1883;48.202;16.310;2024-02-26T03:13:27;5.20;52.50
3736;DHT22;1883;48.202;16.310;2024-02-26T03:15:54;5.30;52.50
3736;DHT22;1883;48.202;16.310;2024-02-26T03:18:22;5.20;52.70
3736;DHT22;1883;48.202;16.310;2024-02-26T03:20:51;5.30;52.80
3736;DHT22;1883;48.202;16.310;2024-02-26T03:23:21;5.30;52.70
3736;DHT22;1883;48.202;16.310;2024-02-26T03:25:48;5.30;53.00
3736;DHT22;1883;48.202;16.310;2024-02-26T03:28:18;5.30;53.10
3736;DHT22;1883;48.202;16.310;2024-02-26T03:30:46;5.30;53.00
3736;DHT22;1883;48.202;16.310;2024-02-26T03:33:14;5.30;53.00
3736;DHT22;1883;48.202;16.310;2024-02-26T03:35:42;5.30;52.90
3736;DHT22;1883;48.202;16.310;2024-02-26T03:38:09;5.30;53.10
3736;DHT22;1883;48.202;16.310;2024-02-26T03:40:36;5.30;53.10
3736;DHT22;1883;48.202;16.310;2024-02-26T03:43:03;5.20;52.80
3736;DHT22;1883;48.202;16.310;2024-02-26T03:45:32;5.30;52.80
3736;DHT22;1883;48.202;16.310;2024-02-26T03:48:01;5.20;52.90
3736;DHT22;1883;48.202;16.310;2024-02-26T03:50:28;5.20;52.90
3736;DHT22;1883;48.202;16.310;2024-02-26T03:52:55;5.20;52.80
3736;DHT22;1883;48.202;16.310;2024-02-26T03:55:23;5.20;52.80
3736;DHT22;1883;48.202;16.310;2024-02-26T03:57:50;5.20;52.70
3736;DHT22;1883;48.202;16.310;2024-02-26T04:00:18;5.20;52.50
3736;DHT22;1883;48.202;16.310;2024-02-26T04:02:47;5.20;52.70
3736;DHT22;1883;48.202;16.310;2024-02-26T04:05:15;5.10;52.60
3736;DHT22;1883;48.202;16.310;2024-02-26T04:07:42;5.20;52.70
3736;DHT22;1883;48.202;16.310;2024-02-26T04:10:10;5.20;52.30
3736;DHT22;1883;48.202;16.310;2024-02-26T04:12:38;5.20;52.70
3736;DHT22;1883;48.202;16.310;2024-02-26T04:15:07;5.20;52.50
3736;DHT22;1883;48.202;16.310;2024-02-26T04:17:34;5.20;52.60
3736;DHT22;1883;48.202;16.310;2024-02-26T04:20:01;5.20;52.50
3736;DHT22;1883;48.202;16.310;2024-02-26T04:22:30;5.10;52.40
3736;DHT22;1883;48.202;16.310;2024-02-26T04:24:57;5.10;52.50
3736;DHT22;1883;48.202;16.310;2024-02-26T04:27:24;5.10;52.20
3736;DHT22;1883;48.202;16.310;2024-02-26T04:29:51;5.10;52.30
3736;DHT22;1883;48.202;16.310;2024-02-26T04:32:18;5.10;52.20
3736;DHT22;1883;48.202;16.310;2024-02-26T04:34:46;5.10;52.10
3736;DHT22;1883;48.202;16.310;2024-02-26T04:37:13;5.10;52.10
3736;DHT22;1883;48.202;16.310;2024-02-26T04:39:41;5.20;52.00
3736;DHT22;1883;48.202;16.310;2024-02-26T04:42:09;5.10;52.10
3736;DHT22;1883;48.202;16.310;2024-02-26T04:44:36;5.10;51.90
3736;DHT22;1883;48.202;16.310;2024-02-26T04:47:03;5.00;51.70
3736;DHT22;1883;48.202;16.310;2024-02-26T04:49:30;5.00;51.60
3736;DHT22;1883;48.202;16.310;2024-02-26T04:51:57;5.00;51.60
3736;DHT22;1883;48.202;16.310;2024-02-26T04:54:24;5.00;51.40
3736;DHT22;1883;48.202;16.310;2024-02-26T04:56:53;5.00;51.40
3736;DHT22;1883;48.202;16.310;2024-02-26T04:59:20;5.00;51.30
3736;DHT22;1883;48.202;16.310;2024-02-26T05:01:47;5.00;51.10
3736;DHT22;1883;48.202;16.310;2024-02-26T05:04:14;4.90;51.10
3736;DHT22;1883;48.202;16.310;2024-02-26T05:06:41;4.90;50.90
3736;DHT22;1883;48.202;16.310;2024-02-26T05:09:09;4.90;50.70
3736;DHT22;1883;48.202;16.310;2024-02-26T05:11:36;4.90;50.80
3736;DHT22;1883;48.202;16.310;2024-02-26T05:14:04;4.90;50.60
3736;DHT22;1883;48.202;16.310;2024-02-26T05:16:31;4.90;50.60
3736;DHT22;1883;48.202;16.310;2024-02-26T05:18:58;4.90;50.30
3736;DHT22;1883;48.202;16.310;2024-02-26T05:21:26;4.90;50.20
3736;DHT22;1883;48.202;16.310;2024-02-26T05:23:54;4.90;50.50
3736;DHT22;1883;48.202;16.310;2024-02-26T05:26:22;4.80;50.20
3736;DHT22;1883;48.202;16.310;2024-02-26T05:28:49;4.80;50.00
3736;DHT22;1883;48.202;16.310;2024-02-26T05:31:17;4.70;50.30
3736;DHT22;1883;48.202;16.310;2024-02-26T05:33:45;4.80;50.00
3736;DHT22;1883;48.202;16.310;2024-02-26T05:36:18;4.70;50.00
3736;DHT22;1883;48.202;16.310;2024-02-26T05:38:45;4.70;49.80
3736;DHT22;1883;48.202;16.310;2024-02-26T05:41:19;4.80;49.70
3736;DHT22;1883;48.202;16.310;2024-02-26T05:43:48;4.70;49.70
3736;DHT22;1883;48.202;16.310;2024-02-26T05:46:18;4.80;49.80
3736;DHT22;1883;48.202;16.310;2024-02-26T05:48:47;4.80;49.70
3736;DHT22;1883;48.202;16.310;2024-02-26T05:51:14;4.80;49.70
3736;DHT22;1883;48.202;16.310;2024-02-26T05:53:42;4.80;49.90
3736;DHT22;1883;48.202;16.310;2024-02-26T05:56:11;4.70;49.80
3736;DHT22;1883;48.202;16.310;2024-02-26T05:58:45;4.70;49.80
3736;DHT22;1883;48.202;16.310;2024-02-26T06:01:20;4.60;49.70
3736;DHT22;1883;48.202;16.310;2024-02-26T06:03:57;4.70;49.60
3736;DHT22;1883;48.202;16.310;2024-02-26T06:06:26;4.70;49.40
3736;DHT22;1883;48.202;16.310;2024-02-26T06:09:07;4.80;49.40
3736;DHT22;1883;48.202;16.310;2024-02-26T06:11:34;4.90;49.40
3736;DHT22;1883;48.202;16.310;2024-02-26T06:14:01;4.90;49.80
3736;DHT22;1883;48.202;16.310;2024-02-26T06:16:31;4.80;49.50
3736;DHT22;1883;48.202;16.310;2024-02-26T06:19:02;4.80;49.60
3736;DHT22;1883;48.202;16.310;2024-02-26T06:21:29;4.90;49.70
3736;DHT22;1883;48.202;16.310;2024-02-26T06:23:57;4.90;49.90
3736;DHT22;1883;48.202;16.310;2024-02-26T06:26:26;4.90;49.90
3736;DHT22;1883;48.202;16.310;2024-02-26T06:28:54;5.00;49.90
3736;DHT22;1883;48.202;16.310;2024-02-26T06:31:23;5.00;50.10
3736;DHT22;1883;48.202;16.310;2024-02-26T06:34:09;5.10;50.00
3736;DHT22;1883;48.202;16.310;2024-02-26T06:36:56;5.20;50.40
3736;DHT22;1883;48.202;16.310;2024-02-26T06:39:24;5.20;50.40
3736;DHT22;1883;48.202;16.310;2024-02-26T06:41:51;5.20;50.60
3736;DHT22;1883;48.202;16.310;2024-02-26T06:44:25;5.30;50.80
3736;DHT22;1883;48.202;16.310;2024-02-26T06:46:57;5.30;50.60
3736;DHT22;1883;48.202;16.310;2024-02-26T06:49:26;5.40;50.80
3736;DHT22;1883;48.202;16.310;2024-02-26T06:51:54;5.40;50.80
3736;DHT22;1883;48.202;16.310;2024-02-26T06:54:22;5.50;50.90
3736;DHT22;1883;48.202;16.310;2024-02-26T06:57:07;5.60;51.10
3736;DHT22;1883;48.202;16.310;2024-02-26T06:59:35;5.60;51.30
3736;DHT22;1883;48.202;16.310;2024-02-26T07:02:02;5.70;51.50
3736;DHT22;1883;48.202;16.310;2024-02-26T07:04:31;5.80;51.50
3736;DHT22;1883;48.202;16.310;2024-02-26T07:07:16;5.90;51.60
3736;DHT22;1883;48.202;16.310;2024-02-26T07:09:44;5.80;51.80
3736;DHT22;1883;48.202;16.310;2024-02-26T07:12:14;6.00;52.10
3736;DHT22;1883;48.202;16.310;2024-02-26T07:14:41;6.00;52.10
3736;DHT22;1883;48.202;16.310;2024-02-26T07:17:10;6.10;52.50
3736;DHT22;1883;48.202;16.310;2024-02-26T07:19:42;6.20;52.60
3736;DHT22;1883;48.202;16.310;2024-02-26T07:22:10;6.20;52.90
3736;DHT22;1883;48.202;16.310;2024-02-26T07:24:39;6.30;53.00
3736;DHT22;1883;48.202;16.310;2024-02-26T07:27:09;6.30;53.00
3736;DHT22;1883;48.202;16.310;2024-02-26T07:29:37;6.40;53.30
3736;DHT22;1883;48.202;16.310;2024-02-26T07:32:05;6.50;53.60
3736;DHT22;1883;48.202;16.310;2024-02-26T07:34:33;6.50;53.70
3736;DHT22;1883;48.202;16.310;2024-02-26T07:37:11;6.50;54.00
3736;DHT22;1883;48.202;16.310;2024-02-26T07:39:38;6.60;54.10
3736;DHT22;1883;48.202;16.310;2024-02-26T07:42:05;6.70;54.20
3736;DHT22;1883;48.202;16.310;2024-02-26T07:44:36;6.70;54.40
3736;DHT22;1883;48.202;16.310;2024-02-26T07:47:08;6.80;54.40
3736;DHT22;1883;48.202;16.310;2024-02-26T07:49:43;6.90;54.30
3736;DHT22;1883;48.202;16.310;2024-02-26T07:52:29;6.90;54.60
3736;DHT22;1883;48.202;16.310;2024-02-26T07:55:02;7.00;54.80
3736;DHT22;1883;48.202;16.310;2024-02-26T07:57:45;7.10;55.20
3736;DHT22;1883;48.202;16.310;2024-02-26T08:00:15;7.20;55.30
3736;DHT22;1883;48.202;16.310;2024-02-26T08:02:47;7.30;55.50
3736;DHT22;1883;48.202;16.310;2024-02-26T08:05:22;7.30;55.60
3736;DHT22;1883;48.202;16.310;2024-02-26T08:07:52;7.30;55.80
3736;DHT22;1883;48.202;16.310;2024-02-26T08:10:21;7.30;55.90
3736;DHT22;1883;48.202;16.310;2024-02-26T08:13:07;7.30;55.90
3736;DHT22;1883;48.202;16.310;2024-02-26T08:15:35;7.40;55.90
3736;DHT22;1883;48.202;16.310;2024-02-26T08:18:06;7.40;56.10
3736;DHT22;1883;48.202;16.310;2024-02-26T08:20:50;7.50;56.20
3736;DHT22;1883;48.202;16.310;2024-02-26T08:33:09;7.80;57.40
3736;DHT22;1883;48.202;16.310;2024-02-26T08:35:39;7.90;57.50
3736;DHT22;1883;48.202;16.310;2024-02-26T08:38:08;8.00;57.70
3736;DHT22;1883;48.202;16.310;2024-02-26T08:40:37;8.00;58.10
3736;DHT22;1883;48.202;16.310;2024-02-26T08:43:05;8.00;58.30
3736;DHT22;1883;48.202;16.310;2024-02-26T08:45:38;8.00;58.40
3736;DHT22;1883;48.202;16.310;2024-02-26T08:48:08;8.10;58.50
3736;DHT22;1883;48.202;16.310;2024-02-26T08:50:36;8.00;58.70
3736;DHT22;1883;48.202;16.310;2024-02-26T08:53:16;8.10;58.80
3736;DHT22;1883;48.202;16.310;2024-02-26T08:55:45;8.20;59.00
3736;DHT22;1883;48.202;16.310;2024-02-26T08:58:30;8.30;59.10
3736;DHT22;1883;48.202;16.310;2024-02-26T09:01:20;8.30;59.30
3736;DHT22;1883;48.202;16.310;2024-02-26T09:03:52;8.40;59.70
3736;DHT22;1883;48.202;16.310;2024-02-26T09:06:20;8.50;59.90
3736;DHT22;1883;48.202;16.310;2024-02-26T09:08:47;8.50;60.30
3736;DHT22;1883;48.202;16.310;2024-02-26T09:11:16;8.60;60.50
3736;DHT22;1883;48.202;16.310;2024-02-26T09:13:48;8.70;60.70
3736;DHT22;1883;48.202;16.310;2024-02-26T09:16:15;8.80;60.90
3736;DHT22;1883;48.202;16.310;2024-02-26T09:18:42;8.90;61.10
3736;DHT22;1883;48.202;16.310;2024-02-26T09:21:11;9.10;61.30
3736;DHT22;1883;48.202;16.310;2024-02-26T09:23:38;9.10;61.70
3736;DHT22;1883;48.202;16.310;2024-02-26T09:26:06;9.20;61.90
3736;DHT22;1883;48.202;16.310;2024-02-26T09:28:34;9.20;62.20
3736;DHT22;1883;48.202;16.310;2024-02-26T09:31:04;9.30;62.50
3736;DHT22;1883;48.202;16.310;2024-02-26T09:33:33;9.40;62.70
3736;DHT22;1883;48.202;16.310;2024-02-26T09:36:01;9.50;63.10
3736;DHT22;1883;48.202;16.310;2024-02-26T09:38:30;9.60;63.60
3736;DHT22;1883;48.202;16.310;2024-02-26T09:41:03;9.80;64.10
3736;DHT22;1883;48.202;16.310;2024-02-26T09:43:35;9.90;64.30
3736;DHT22;1883;48.202;16.310;2024-02-26T09:46:17;10.00;64.80
3736;DHT22;1883;48.202;16.310;2024-02-26T09:48:47;10.00;65.20
3736;DHT22;1883;48.202;16.310;2024-02-26T09:51:25;10.10;65.40
3736;DHT22;1883;48.202;16.310;2024-02-26T09:53:55;10.20;65.80
3736;DHT22;1883;48.202;16.310;2024-02-26T09:56:23;10.20;65.90
3736;DHT22;1883;48.202;16.310;2024-02-26T09:58:52;10.20;66.20
3736;DHT22;1883;48.202;16.310;2024-02-26T10:01:22;10.30;66.40
3736;DHT22;1883;48.202;16.310;2024-02-26T10:03:56;10.30;66.60
3736;DHT22;1883;48.202;16.310;2024-02-26T10:06:29;10.40;66.90
3736;DHT22;1883;48.202;16.310;2024-02-26T10:09:08;10.40;67.00
3736;DHT22;1883;48.202;16.310;2024-02-26T10:11:38;10.50;67.20
3736;DHT22;1883;48.202;16.310;2024-02-26T10:14:19;10.60;67.40
3736;DHT22;1883;48.202;16.310;2024-02-26T10:16:59;10.70;67.60
3736;DHT22;1883;48.202;16.310;2024-02-26T10:19:37;10.80;67.70
3736;DHT22;1883;48.202;16.310;2024-02-26T10:22:05;10.80;67.80
3736;DHT22;1883;48.202;16.310;2024-02-26T10:24:37;10.90;67.90
3736;DHT22;1883;48.202;16.310;2024-02-26T10:27:08;10.90;68.10
3736;DHT22;1883;48.202;16.310;2024-02-26T10:29:38;11.00;68.30
3736;DHT22;1883;48.202;16.310;2024-02-26T10:32:07;11.00;68.40
3736;DHT22;1883;48.202;16.310;2024-02-26T10:34:42;11.10;68.50
3736;DHT22;1883;48.202;16.310;2024-02-26T10:37:09;11.10;68.50
3736;DHT22;1883;48.202;16.310;2024-02-26T10:39:39;11.20;68.50
3736;DHT22;1883;48.202;16.310;2024-02-26T10:42:15;11.20;68.60
3736;DHT22;1883;48.202;16.310;2024-02-26T10:44:47;11.40;68.70
3736;DHT22;1883;48.202;16.310;2024-02-26T10:47:15;11.30;68.80
3736;DHT22;1883;48.202;16.310;2024-02-26T10:49:49;11.30;69.00
3736;DHT22;1883;48.202;16.310;2024-02-26T10:52:19;11.40;69.10
3736;DHT22;1883;48.202;16.310;2024-02-26T10:54:52;11.50;69.20
3736;DHT22;1883;48.202;16.310;2024-02-26T10:57:21;11.50;69.20
3736;DHT22;1883;48.202;16.310;2024-02-26T11:00:03;11.50;69.10
3736;DHT22;1883;48.202;16.310;2024-02-26T11:02:50;11.60;69.40
3736;DHT22;1883;48.202;16.310;2024-02-26T11:05:32;11.60;69.40
3736;DHT22;1883;48.202;16.310;2024-02-26T11:08:18;11.70;69.40
3736;DHT22;1883;48.202;16.310;2024-02-26T11:10:53;11.80;69.30
3736;DHT22;1883;48.202;16.310;2024-02-26T11:13:22;11.90;69.50
3736;DHT22;1883;48.202;16.310;2024-02-26T11:16:08;12.00;69.80
3736;DHT22;1883;48.202;16.310;2024-02-26T11:18:53;12.00;69.90
3736;DHT22;1883;48.202;16.310;2024-02-26T11:21:23;12.10;69.90
3736;DHT22;1883;48.202;16.310;2024-02-26T11:23:57;12.10;70.10
3736;DHT22;1883;48.202;16.310;2024-02-26T11:26:27;12.10;70.10
3736;DHT22;1883;48.202;16.310;2024-02-26T11:28:56;12.20;70.20
3736;DHT22;1883;48.202;16.310;2024-02-26T11:31:29;12.20;70.40
3736;DHT22;1883;48.202;16.310;2024-02-26T11:34:03;12.30;70.60
3736;DHT22;1883;48.202;16.310;2024-02-26T11:36:33;12.30;70.90
3736;DHT22;1883;48.202;16.310;2024-02-26T11:39:00;12.40;71.20
3736;DHT22;1883;48.202;16.310;2024-02-26T11:41:36;12.40;71.50
3736;DHT22;1883;48.202;16.310;2024-02-26T11:44:03;12.50;71.60
3736;DHT22;1883;48.202;16.310;2024-02-26T11:46:39;12.50;71.80
3736;DHT22;1883;48.202;16.310;2024-02-26T11:49:31;12.60;72.00
3736;DHT22;1883;48.202;16.310;2024-02-26T11:52:14;12.70;72.60
3736;DHT22;1883;48.202;16.310;2024-02-26T11:54:47;12.90;72.80
3736;DHT22;1883;48.202;16.310;2024-02-26T11:57:38;12.90;73.00
3736;DHT22;1883;48.202;16.310;2024-02-26T12:00:20;12.90;73.10
3736;DHT22;1883;48.202;16.310;2024-02-26T12:02:50;12.90;73.20
3736;DHT22;1883;48.202;16.310;2024-02-26T12:05:56;13.00;73.30
3736;DHT22;1883;48.202;16.310;2024-02-26T12:08:27;13.10;73.40
3736;DHT22;1883;48.202;16.310;2024-02-26T12:11:17;13.20;73.50
3736;DHT22;1883;48.202;16.310;2024-02-26T12:14:08;13.20;73.60
3736;DHT22;1883;48.202;16.310;2024-02-26T12:17:00;13.30;73.70
3736;DHT22;1883;48.202;16.310;2024-02-26T12:19:36;13.30;73.70
3736;DHT22;1883;48.202;16.310;2024-02-26T12:22:22;13.30;73.80
3736;DHT22;1883;48.202;16.310;2024-02-26T12:25:24;13.40;73.80
3736;DHT22;1883;48.202;16.310;2024-02-26T12:28:44;13.50;73.80
3736;DHT22;1883;48.202;16.310;2024-02-26T12:44:14;13.80;74.30
3736;DHT22;1883;48.202;16.310;2024-02-26T12:47:01;13.80;74.50
3736;DHT22;1883;48.202;16.310;2024-02-26T12:49:48;13.80;74.40
3736;DHT22;1883;48.202;16.310;2024-02-26T12:52:17;13.90;74.40
3736;DHT22;1883;48.202;16.310;2024-02-26T12:54:45;14.00;74.40
3736;DHT22;1883;48.202;16.310;2024-02-26T12:57:17;14.10;74.60
3736;DHT22;1883;48.202;16.310;2024-02-26T12:59:54;14.10;74.60
3736;DHT22;1883;48.202;16.310;2024-02-26T13:02:22;14.10;74.50
3736;DHT22;1883;48.202;16.310;2024-02-26T13:05:05;14.00;74.60
3736;DHT22;1883;48.202;16.310;2024-02-26T13:07:41;13.90;74.50
3736;DHT22;1883;48.202;16.310;2024-02-26T13:10:19;13.80;74.50
3736;DHT22;1883;48.202;16.310;2024-02-26T13:12:54;13.70;74.50
3736;DHT22;1883;48.202;16.310;2024-02-26T13:15:43;13.60;74.50
3736;DHT22;1883;48.202;16.310;2024-02-26T13:18:19;13.50;74.20
3736;DHT22;1883;48.202;16.310;2024-02-26T13:20:50;13.50;74.10
3736;DHT22;1883;48.202;16.310;2024-02-26T13:23:18;13.60;74.20
3736;DHT22;1883;48.202;16.310;2024-02-26T13:25:58;13.60;74.20
3736;DHT22;1883;48.202;16.310;2024-02-26T13:28:27;13.60;74.30
3736;DHT22;1883;48.202;16.310;2024-02-26T13:31:00;13.50;74.30
3736;DHT22;1883;48.202;16.310;2024-02-26T13:33:30;13.60;74.20
3736;DHT22;1883;48.202;16.310;2024-02-26T13:36:16;13.50;74.40
3736;DHT22;1883;48.202;16.310;2024-02-26T13:38:59;13.40;74.30
3736;DHT22;1883;48.202;16.310;2024-02-26T13:41:29;13.40;74.20
3736;DHT22;1883;48.202;16.310;2024-02-26T13:43:59;13.40;74.20
3736;DHT22;1883;48.202;16.310;2024-02-26T13:47:05;13.50;74.30
3736;DHT22;1883;48.202;16.310;2024-02-26T13:49:43;13.70;74.30
3736;DHT22;1883;48.202;16.310;2024-02-26T13:52:23;13.80;74.40
3736;DHT22;1883;48.202;16.310;2024-02-26T13:54:51;13.70;74.50
3736;DHT22;1883;48.202;16.310;2024-02-26T13:57:30;13.70;74.60
3736;DHT22;1883;48.202;16.310;2024-02-26T14:00:06;13.50;74.50
3736;DHT22;1883;48.202;16.310;2024-02-26T14:06:24;13.30;74.30
3736;DHT22;1883;48.202;16.310;2024-02-26T14:09:17;13.10;74.20
3736;DHT22;1883;48.202;16.310;2024-02-26T14:11:55;13.20;74.20
3736;DHT22;1883;48.202;16.310;2024-02-26T14:14:27;13.30;74.20
3736;DHT22;1883;48.202;16.310;2024-02-26T14:16:58;13.50;74.50
3736;DHT22;1883;48.202;16.310;2024-02-26T14:19:26;13.50;74.30
3736;DHT22;1883;48.202;16.310;2024-02-26T14:30:53;13.60;74.60
3736;DHT22;1883;48.202;16.310;2024-02-26T14:33:31;13.40;74.40
3736;DHT22;1883;48.202;16.310;2024-02-26T14:36:15;13.10;74.30
3736;DHT22;1883;48.202;16.310;2024-02-26T14:38:51;13.10;74.20
3736;DHT22;1883;48.202;16.310;2024-02-26T14:41:35;13.00;74.00
3736;DHT22;1883;48.202;16.310;2024-02-26T14:44:02;12.90;73.90
3736;DHT22;1883;48.202;16.310;2024-02-26T14:46:37;12.90;73.80
3736;DHT22;1883;48.202;16.310;2024-02-26T14:49:05;12.80;73.80
3736;DHT22;1883;48.202;16.310;2024-02-26T14:51:46;12.90;73.80
3736;DHT22;1883;48.202;16.310;2024-02-26T14:54:35;12.80;73.80
3736;DHT22;1883;48.202;16.310;2024-02-26T14:57:08;12.70;73.60
3736;DHT22;1883;48.202;16.310;2024-02-26T14:59:56;12.50;73.40
3736;DHT22;1883;48.202;16.310;2024-02-26T15:06:04;12.40;73.20
3736;DHT22;1883;48.202;16.310;2024-02-26T15:08:34;12.30;73.20
3736;DHT22;1883;48.202;16.310;2024-02-26T15:16:47;12.20;73.00
3736;DHT22;1883;48.202;16.310;2024-02-26T15:19:54;12.20;72.90
3736;DHT22;1883;48.202;16.310;2024-02-26T15:25:39;12.10;72.70
3736;DHT22;1883;48.202;16.310;2024-02-26T15:28:17;12.00;72.50
3736;DHT22;1883;48.202;16.310;2024-02-26T15:33:58;11.90;72.50
3736;DHT22;1883;48.202;16.310;2024-02-26T15:36:44;11.90;72.50
3736;DHT22;1883;48.202;16.310;2024-02-26T15:39:30;11.80;72.30
3736;DHT22;1883;48.202;16.310;2024-02-26T15:45:27;11.70;72.20
3736;DHT22;1883;48.202;16.310;2024-02-26T15:48:26;11.70;72.20
3736;DHT22;1883;48.202;16.310;2024-02-26T15:51:28;11.60;72.10
3736;DHT22;1883;48.202;16.310;2024-02-26T16:03:15;11.50;72.10
3736;DHT22;1883;48.202;16.310;2024-02-26T17:28:17;10.90;71.00
3736;DHT22;1883;48.202;16.310;2024-02-26T17:30:59;10.90;71.00
3736;DHT22;1883;48.202;16.310;2024-02-26T17:33:50;10.90;70.90
3736;DHT22;1883;48.202;16.310;2024-02-26T17:36:24;10.90;70.90
3736;DHT22;1883;48.202;16.310;2024-02-26T17:39:40;10.90;70.80
3736;DHT22;1883;48.202;16.310;2024-02-26T17:42:48;10.90;70.80
3736;DHT22;1883;48.202;16.310;2024-02-26T17:48:59;10.90;70.90
3736;DHT22;1883;48.202;16.310;2024-02-26T17:51:54;10.80;70.80
3736;DHT22;1883;48.202;16.310;2024-02-26T17:54:30;10.80;70.70
3736;DHT22;1883;48.202;16.310;2024-02-26T17:57:48;10.80;70.70
3736;DHT22;1883;48.202;16.310;2024-02-26T18:00:51;10.70;70.70
3736;DHT22;1883;48.202;16.310;2024-02-26T18:03:33;10.70;70.70
3736;DHT22;1883;48.202;16.310;2024-02-26T18:23:32;10.40;70.50
3736;DHT22;1883;48.202;16.310;2024-02-26T18:29:53;10.40;70.50
3736;DHT22;1883;48.202;16.310;2024-02-26T18:32:59;10.40;70.50
3736;DHT22;1883;48.202;16.310;2024-02-26T20:47:09;9.60;69.90
3736;DHT22;1883;48.202;16.310;2024-02-26T20:50:13;9.60;69.90
3736;DHT22;1883;48.202;16.310;2024-02-26T20:56:58;9.60;69.90
3736;DHT22;1883;48.202;16.310;2024-02-26T21:55:49;9.30;69.50
3736;DHT22;1883;48.202;16.310;2024-02-26T21:58:41;9.30;69.50
3736;DHT22;1883;48.202;16.310;2024-02-26T22:01:23;9.20;69.50
3736;DHT22;1883;48.202;16.310;2024-02-26T22:04:10;9.20;69.40
3736;DHT22;1883;48.202;16.310;2024-02-26T22:06:52;9.10;69.30
3736;DHT22;1883;48.202;16.310;2024-02-26T22:09:41;9.10;69.50
3736;DHT22;1883;48.202;16.310;2024-02-26T22:12:41;9.10;69.50
3736;DHT22;1883;48.202;16.310;2024-02-26T22:15:43;9.10;69.40
3736;DHT22;1883;48.202;16.310;2024-02-26T22:18:28;9.00;69.40
3736;DHT22;1883;48.202;16.310;2024-02-26T22:21:23;9.00;69.30
3736;DHT22;1883;48.202;16.310;2024-02-26T22:24:18;8.90;69.30
3736;DHT22;1883;48.202;16.310;2024-02-26T22:26:50;8.80;69.10
3736;DHT22;1883;48.202;16.310;2024-02-26T22:29:23;8.80;69.00
3736;DHT22;1883;48.202;16.310;2024-02-26T22:32:19;8.80;69.10
3736;DHT22;1883;48.202;16.310;2024-02-26T22:35:17;8.80;69.00
3736;DHT22;1883;48.202;16.310;2024-02-26T22:37:53;8.70;68.90
3736;DHT22;1883;48.202;16.310;2024-02-26T22:40:41;8.60;68.90